createdAt,value
2018-03-29T00:05:38.869Z,13.43
2018-03-29T00:11:29.725Z,12.87
2018-03-29T00:17:20.570Z,9.56
2018-03-29T00:23:11.405Z,8.55
2018-03-29T00:29:02.252Z,7.38
2018-03-29T00:34:53.124Z,12.4
2018-03-29T00:40:44.018Z,9.98
2018-03-29T00:46:34.879Z,8.59
2018-03-29T00:52:25.841Z,9.54
2018-03-29T00:58:16.635Z,14.86
2018-03-29T01:04:07.492Z,9.93
2018-03-29T01:09:58.311Z,13.23
2018-03-29T01:15:49.240Z,13.38
2018-03-29T01:21:40.044Z,11.34
2018-03-29T01:27:30.906Z,10.07
2018-03-29T01:33:21.809Z,12.26
2018-03-29T01:39:12.631Z,11.79
2018-03-29T01:45:03.513Z,9.69
2018-03-29T01:50:54.364Z,8.43
2018-03-29T01:56:45.281Z,10.97
2018-03-29T02:02:36.123Z,13.07
2018-03-29T02:08:26.964Z,16.16
2018-03-29T02:14:17.921Z,9.77
2018-03-29T02:20:08.707Z,10.91
2018-03-29T02:25:59.628Z,5.35
2018-03-29T02:31:50.425Z,10.08
2018-03-29T02:37:41.291Z,9.21
2018-03-29T02:43:32.210Z,8.6
2018-03-29T02:49:23.019Z,10.4
2018-03-29T02:55:13.937Z,11.61
2018-03-29T03:01:04.773Z,6.01
2018-03-29T03:06:55.619Z,10.91
2018-03-29T03:12:46.518Z,8.85
2018-03-29T03:18:37.360Z,10.17
2018-03-29T03:24:28.236Z,5.78
2018-03-29T03:30:19.077Z,9.17
2018-03-29T03:36:09.945Z,7.68
2018-03-29T03:42:00.821Z,9.03
2018-03-29T03:47:51.662Z,14.39
2018-03-29T03:53:42.548Z,8.48
2018-03-29T03:59:33.437Z,6.92
2018-03-29T04:05:24.309Z,10.15
2018-03-29T04:11:15.124Z,9.56
2018-03-29T04:17:05.997Z,6.38
2018-03-29T04:22:56.852Z,13.76
2018-03-29T04:28:47.767Z,7.1
2018-03-29T04:34:38.612Z,9.26
2018-03-29T04:40:29.446Z,7.5
2018-03-29T04:46:20.298Z,11.29
2018-03-29T04:52:11.157Z,9.96
2018-03-29T04:58:02.055Z,8.31
2018-03-29T05:03:52.965Z,7.12
2018-03-29T05:09:43.802Z,9.91
2018-03-29T05:15:34.697Z,7.56
2018-03-29T05:21:25.511Z,6.22
2018-03-29T05:27:16.363Z,6.2
2018-03-29T05:33:07.212Z,6.69
2018-03-29T05:38:58.101Z,20.91
2018-03-29T05:44:48.981Z,55.64
2018-03-29T05:50:39.850Z,71.43
2018-03-29T05:56:30.764Z,114.69
2018-03-29T06:02:21.538Z,154.15
2018-03-29T06:08:12.413Z,182.59
2018-03-29T06:14:03.296Z,235.12
2018-03-29T06:19:54.160Z,273.66
2018-03-29T06:25:45.021Z,251.98
2018-03-29T06:31:35.860Z,286.2
2018-03-29T06:37:26.738Z,253.42
2018-03-29T06:43:17.590Z,300.05
2018-03-29T06:49:08.468Z,342.33
2018-03-29T06:54:59.308Z,379.37
2018-03-29T07:00:50.181Z,360.66
2018-03-29T07:06:41.043Z,379.18
2018-03-29T07:12:31.929Z,306.23
2018-03-29T07:18:22.761Z,251.61
2018-03-29T07:24:13.628Z,170.32
2018-03-29T07:30:04.502Z,122.85
2018-03-29T07:35:55.386Z,88.38
2018-03-29T07:41:46.220Z,90.17
2018-03-29T07:47:37.098Z,69.11
2018-03-29T07:53:27.937Z,53.03
2018-03-29T07:59:18.844Z,51.49
2018-03-29T08:05:09.678Z,59.92
2018-03-29T08:11:00.535Z,49.63
2018-03-29T08:16:51.424Z,44.95
2018-03-29T08:22:42.315Z,38.21
2018-03-29T08:28:33.138Z,43.2
2018-03-29T08:34:23.990Z,42.64
2018-03-29T08:40:14.876Z,51.14
2018-03-29T08:46:05.749Z,48.77
2018-03-29T08:51:56.576Z,42.74
2018-03-29T08:57:47.507Z,36.72
2018-03-29T09:03:38.377Z,27.29
2018-03-29T09:09:29.228Z,21.46
2018-03-29T09:15:20.050Z,23.77
2018-03-29T09:21:10.917Z,20.34
2018-03-29T09:27:01.777Z,18.48
2018-03-29T09:32:52.670Z,15.02
2018-03-29T09:38:43.562Z,13.19
2018-03-29T09:44:34.367Z,20.24
2018-03-29T09:50:25.240Z,14.31
2018-03-29T09:56:16.120Z,12.37
2018-03-29T10:02:07.001Z,14.29
2018-03-29T10:07:57.842Z,15.9
2018-03-29T10:13:48.814Z,17.23
2018-03-29T10:19:39.591Z,14.08
2018-03-29T10:25:30.553Z,18.3
2018-03-29T10:31:21.308Z,13.1
2018-03-29T10:37:12.218Z,15.55
2018-03-29T10:43:03.063Z,14.47
2018-03-29T10:48:53.922Z,16.2
2018-03-29T10:54:44.783Z,18.67
2018-03-29T11:00:35.699Z,14.32
2018-03-29T11:06:26.691Z,28.5
2018-03-29T11:12:17.475Z,89.53
2018-03-29T11:18:08.318Z,178.92
2018-03-29T11:23:59.197Z,142.4
2018-03-29T11:29:50.071Z,117.65
2018-03-29T11:35:40.961Z,195.26
2018-03-29T11:41:31.807Z,280.25
2018-03-29T11:47:22.741Z,195.76
2018-03-29T11:53:13.573Z,187.41
2018-03-29T11:59:04.489Z,143.7
2018-03-29T12:04:55.341Z,129.34
2018-03-29T12:10:46.245Z,105.93
2018-03-29T12:16:37.120Z,97.87
2018-03-29T12:22:27.998Z,84.47
2018-03-29T12:28:18.882Z,77.76
2018-03-29T12:34:09.799Z,88.87
2018-03-29T12:40:00.733Z,55.63
2018-03-29T12:45:51.537Z,41.9
2018-03-29T12:51:42.487Z,29.02
2018-03-29T12:57:33.295Z,17.45
2018-03-29T13:03:24.215Z,18.37
2018-03-29T13:09:15.124Z,12.56
2018-03-29T13:15:05.986Z,11.21
2018-03-29T13:20:56.916Z,8.31
2018-03-29T13:26:47.842Z,16.81
2018-03-29T13:32:38.733Z,24.75
2018-03-29T13:38:29.603Z,27.86
2018-03-29T13:44:20.539Z,54.92
2018-03-29T13:50:11.445Z,79.29
2018-03-29T13:56:02.364Z,64.04
2018-03-29T14:01:53.235Z,70.59
2018-03-29T14:07:44.143Z,75.11
2018-03-29T14:13:35.030Z,82.98
2018-03-29T14:19:25.921Z,95.26
2018-03-29T14:25:16.770Z,73.9
2018-03-29T14:31:07.688Z,104.96
2018-03-29T14:36:58.615Z,105.54
2018-03-29T14:42:49.515Z,79.93
2018-03-29T14:48:40.344Z,58.11
2018-03-29T14:54:31.254Z,36.35
2018-03-29T15:00:22.174Z,23.92
2018-03-29T15:06:13.049Z,15.61
2018-03-29T15:12:03.922Z,12.85
2018-03-29T15:17:54.822Z,13.03
2018-03-29T15:23:45.718Z,10.56
2018-03-29T15:29:36.645Z,9.1
2018-03-29T15:35:27.486Z,9.31
2018-03-29T15:41:18.406Z,8.97
2018-03-29T15:47:09.264Z,9.05
2018-03-29T15:53:00.157Z,9.59
2018-03-29T15:58:51.063Z,7.94
2018-03-29T16:04:41.980Z,11.76
2018-03-29T16:10:32.794Z,11.93
2018-03-29T16:16:23.693Z,7.01
2018-03-29T16:22:14.563Z,7.87
2018-03-29T16:28:05.474Z,9.39
2018-03-29T16:33:56.374Z,9.6
2018-03-29T16:39:47.281Z,7.93
2018-03-29T16:45:38.100Z,8.94
2018-03-29T16:51:28.964Z,14.98
2018-03-29T16:57:19.856Z,8.39
2018-03-29T17:03:10.749Z,10.43
2018-03-29T17:09:01.630Z,11.89
2018-03-29T17:14:52.495Z,9.25
2018-03-29T17:20:43.397Z,9.94
2018-03-29T17:26:34.237Z,7.05
2018-03-29T17:32:25.138Z,7.73
2018-03-29T17:38:16.014Z,16.55
2018-03-29T17:44:06.888Z,7.6
2018-03-29T17:49:57.743Z,16.95
2018-03-29T17:55:48.705Z,15.42
2018-03-29T18:01:39.542Z,8.43
2018-03-29T18:07:30.364Z,7.65
2018-03-29T18:13:21.254Z,6.08
2018-03-29T18:19:12.148Z,6.46
2018-03-29T18:25:03.005Z,9.63
2018-03-29T18:30:53.904Z,7.62
2018-03-29T18:36:44.767Z,14.7
2018-03-29T18:42:35.630Z,5.86
2018-03-29T18:48:26.630Z,12.62
2018-03-29T18:54:17.375Z,10.02
2018-03-29T19:00:08.283Z,12.79
2018-03-29T19:05:59.164Z,13.7
2018-03-29T19:11:50.088Z,8.36
2018-03-29T19:17:40.901Z,10.75
2018-03-29T19:23:31.797Z,12.87
2018-03-29T19:29:22.651Z,11.44
2018-03-29T19:35:13.578Z,21.26
2018-03-29T19:41:04.380Z,23.71
2018-03-29T19:46:55.240Z,23.43
2018-03-29T19:52:46.185Z,18.3
2018-03-29T19:58:36.991Z,11.6
2018-03-29T20:04:27.859Z,14.2
2018-03-29T20:10:18.740Z,13.8
2018-03-29T20:16:09.620Z,8.76
2018-03-29T20:22:00.505Z,7.12
2018-03-29T20:27:51.401Z,11.77
2018-03-29T20:33:42.222Z,8.54
2018-03-29T20:39:33.124Z,9.55
2018-03-29T20:45:23.943Z,11.86
2018-03-29T20:51:14.860Z,10.42
2018-03-29T20:57:05.698Z,12.15
2018-03-29T21:02:56.567Z,13.88
2018-03-29T21:08:47.440Z,9.23
2018-03-29T21:14:38.333Z,12.36
2018-03-29T21:20:29.207Z,6.84
2018-03-29T21:26:20.079Z,6.98
2018-03-29T21:32:10.931Z,9.69
2018-03-29T21:38:01.799Z,9.54
2018-03-29T21:43:52.705Z,9
2018-03-29T21:49:43.610Z,8.71
2018-03-29T21:55:34.410Z,9.69
2018-03-29T22:01:25.326Z,6.28
2018-03-29T22:07:16.134Z,9.97
2018-03-29T22:13:07.017Z,8
2018-03-29T22:18:57.890Z,7.03
2018-03-29T22:24:48.756Z,7.76
2018-03-29T22:30:39.637Z,12.7
2018-03-29T22:36:30.528Z,7.08
2018-03-29T22:42:21.379Z,6.18
2018-03-29T22:48:12.221Z,16.45
2018-03-29T22:54:03.112Z,12.79
2018-03-29T22:59:53.998Z,11.82
2018-03-29T23:05:44.886Z,7.92
2018-03-29T23:11:35.769Z,7.66
2018-03-29T23:17:26.654Z,7.9
2018-03-29T23:23:17.481Z,7.01
2018-03-29T23:29:08.375Z,8.01
2018-03-29T23:34:59.221Z,10.22
2018-03-29T23:40:50.083Z,12.16
2018-03-29T23:46:41.048Z,11.14
2018-03-29T23:52:31.825Z,10.32
2018-03-29T23:58:22.669Z,8.66
